sensor_id;sensor_type;location;lat;lon;timestamp;P1;durP1;ratioP1;P2;durP2;ratioP2
62014;SDS011;47970;52.396;9.586;2023-02-28T00:00:42;10.47;;;5.17;;
62014;SDS011;47970;52.396;9.586;2023-02-28T00:03:08;11.65;;;4.95;;
62014;SDS011;47970;52.396;9.586;2023-02-28T00:05:33;10.75;;;4.53;;
62014;SDS011;47970;52.396;9.586;2023-02-28T00:07:59;10.20;;;4.55;;
62014;SDS011;47970;52.396;9.586;2023-02-28T00:10:26;10.93;;;5.10;;
62014;SDS011;47970;52.396;9.586;2023-02-28T00:12:51;11.05;;;4.72;;
62014;SDS011;47970;52.396;9.586;2023-02-28T00:15:17;11.77;;;5.30;;
62014;SDS011;47970;52.396;9.586;2023-02-28T00:17:43;13.05;;;4.90;;
62014;SDS011;47970;52.396;9.586;2023-02-28T00:20:08;13.40;;;5.28;;
62014;SDS011;47970;52.396;9.586;2023-02-28T00:22:35;19.27;;;6.68;;
62014;SDS011;47970;52.396;9.586;2023-02-28T00:25:00;13.50;;;5.57;;
62014;SDS011;47970;52.396;9.586;2023-02-28T00:27:25;14.07;;;4.87;;
62014;SDS011;47970;52.396;9.586;2023-02-28T00:29:50;11.60;;;5.23;;
62014;SDS011;47970;52.396;9.586;2023-02-28T00:32:16;11.27;;;5.13;;
62014;SDS011;47970;52.396;9.586;2023-02-28T00:34:41;12.93;;;6.20;;
62014;SDS011;47970;52.396;9.586;2023-02-28T00:37:07;12.70;;;4.50;;
62014;SDS011;47970;52.396;9.586;2023-02-28T00:39:33;14.93;;;5.70;;
62014;SDS011;47970;52.396;9.586;2023-02-28T00:41:59;20.08;;;6.63;;
62014;SDS011;47970;52.396;9.586;2023-02-28T00:44:24;11.90;;;5.60;;
62014;SDS011;47970;52.396;9.586;2023-02-28T00:46:49;14.13;;;6.25;;
62014;SDS011;47970;52.396;9.586;2023-02-28T00:49:14;12.17;;;5.80;;
62014;SDS011;47970;52.396;9.586;2023-02-28T00:51:40;12.77;;;6.03;;
62014;SDS011;47970;52.396;9.586;2023-02-28T00:54:05;15.97;;;5.97;;
62014;SDS011;47970;52.396;9.586;2023-02-28T00:56:30;13.60;;;5.57;;
62014;SDS011;47970;52.396;9.586;2023-02-28T00:58:55;19.47;;;6.50;;
62014;SDS011;47970;52.396;9.586;2023-02-28T01:01:20;15.47;;;5.50;;
62014;SDS011;47970;52.396;9.586;2023-02-28T01:03:45;12.80;;;5.37;;
62014;SDS011;47970;52.396;9.586;2023-02-28T01:06:11;14.03;;;5.83;;
62014;SDS011;47970;52.396;9.586;2023-02-28T01:08:36;12.25;;;5.47;;
62014;SDS011;47970;52.396;9.586;2023-02-28T01:11:08;14.57;;;6.03;;
62014;SDS011;47970;52.396;9.586;2023-02-28T01:13:34;15.20;;;5.60;;
62014;SDS011;47970;52.396;9.586;2023-02-28T01:18:29;13.30;;;5.30;;
62014;SDS011;47970;52.396;9.586;2023-02-28T01:20:55;14.45;;;6.32;;
62014;SDS011;47970;52.396;9.586;2023-02-28T01:23:21;14.63;;;5.50;;
62014;SDS011;47970;52.396;9.586;2023-02-28T01:25:48;13.55;;;5.38;;
62014;SDS011;47970;52.396;9.586;2023-02-28T01:28:13;17.70;;;6.60;;
62014;SDS011;47970;52.396;9.586;2023-02-28T01:30:38;15.18;;;5.78;;
62014;SDS011;47970;52.396;9.586;2023-02-28T01:33:03;14.83;;;5.80;;
62014;SDS011;47970;52.396;9.586;2023-02-28T01:35:31;14.57;;;5.33;;
62014;SDS011;47970;52.396;9.586;2023-02-28T01:37:56;14.70;;;5.75;;
62014;SDS011;47970;52.396;9.586;2023-02-28T01:40:21;16.53;;;5.80;;
62014;SDS011;47970;52.396;9.586;2023-02-28T01:42:47;15.40;;;5.70;;
62014;SDS011;47970;52.396;9.586;2023-02-28T01:45:28;21.27;;;6.47;;
62014;SDS011;47970;52.396;9.586;2023-02-28T01:47:59;16.95;;;5.65;;
62014;SDS011;47970;52.396;9.586;2023-02-28T01:50:27;13.80;;;4.93;;
62014;SDS011;47970;52.396;9.586;2023-02-28T01:52:53;12.88;;;5.43;;
62014;SDS011;47970;52.396;9.586;2023-02-28T01:55:19;12.85;;;5.45;;
62014;SDS011;47970;52.396;9.586;2023-02-28T01:57:48;17.23;;;5.53;;
62014;SDS011;47970;52.396;9.586;2023-02-28T02:00:14;13.52;;;5.20;;
62014;SDS011;47970;52.396;9.586;2023-02-28T02:02:43;15.18;;;6.00;;
62014;SDS011;47970;52.396;9.586;2023-02-28T02:05:10;17.50;;;5.57;;
62014;SDS011;47970;52.396;9.586;2023-02-28T02:07:37;16.35;;;5.68;;
62014;SDS011;47970;52.396;9.586;2023-02-28T02:15:16;18.00;;;5.75;;
62014;SDS011;47970;52.396;9.586;2023-02-28T02:17:44;14.35;;;5.05;;
62014;SDS011;47970;52.396;9.586;2023-02-28T02:25:34;9.93;;;4.70;;
62014;SDS011;47970;52.396;9.586;2023-02-28T02:30:53;13.70;;;5.45;;
62014;SDS011;47970;52.396;9.586;2023-02-28T02:33:30;12.75;;;5.13;;
62014;SDS011;47970;52.396;9.586;2023-02-28T02:36:03;12.02;;;5.10;;
62014;SDS011;47970;52.396;9.586;2023-02-28T02:38:42;16.38;;;4.65;;
62014;SDS011;47970;52.396;9.586;2023-02-28T02:41:23;12.23;;;5.40;;
62014;SDS011;47970;52.396;9.586;2023-02-28T02:43:53;9.50;;;4.07;;
62014;SDS011;47970;52.396;9.586;2023-02-28T02:48:44;11.48;;;4.90;;
62014;SDS011;47970;52.396;9.586;2023-02-28T02:51:12;12.65;;;4.95;;
62014;SDS011;47970;52.396;9.586;2023-02-28T02:53:40;18.52;;;4.95;;
62014;SDS011;47970;52.396;9.586;2023-02-28T02:56:06;14.57;;;5.60;;
62014;SDS011;47970;52.396;9.586;2023-02-28T02:58:35;9.05;;;3.97;;
62014;SDS011;47970;52.396;9.586;2023-02-28T03:01:06;13.15;;;4.78;;
62014;SDS011;47970;52.396;9.586;2023-02-28T03:03:32;11.43;;;4.75;;
62014;SDS011;47970;52.396;9.586;2023-02-28T03:05:59;13.23;;;5.35;;
62014;SDS011;47970;52.396;9.586;2023-02-28T03:08:24;12.32;;;4.97;;
62014;SDS011;47970;52.396;9.586;2023-02-28T03:10:50;9.98;;;4.78;;
62014;SDS011;47970;52.396;9.586;2023-02-28T03:18:18;11.97;;;4.77;;
62014;SDS011;47970;52.396;9.586;2023-02-28T03:21:02;12.85;;;5.00;;
62014;SDS011;47970;52.396;9.586;2023-02-28T03:26:04;11.73;;;5.07;;
62014;SDS011;47970;52.396;9.586;2023-02-28T03:28:32;9.48;;;4.47;;
62014;SDS011;47970;52.396;9.586;2023-02-28T03:33:38;11.98;;;4.85;;
62014;SDS011;47970;52.396;9.586;2023-02-28T03:36:06;10.85;;;4.95;;
62014;SDS011;47970;52.396;9.586;2023-02-28T03:38:34;13.07;;;4.88;;
62014;SDS011;47970;52.396;9.586;2023-02-28T03:41:32;12.45;;;4.85;;
62014;SDS011;47970;52.396;9.586;2023-02-28T03:43:55;12.73;;;4.75;;
62014;SDS011;47970;52.396;9.586;2023-02-28T03:46:22;9.77;;;4.57;;
62014;SDS011;47970;52.396;9.586;2023-02-28T03:48:51;9.52;;;5.00;;
62014;SDS011;47970;52.396;9.586;2023-02-28T03:51:17;16.45;;;4.38;;
62014;SDS011;47970;52.396;9.586;2023-02-28T03:53:48;11.48;;;4.43;;
62014;SDS011;47970;52.396;9.586;2023-02-28T03:56:20;15.40;;;4.63;;
62014;SDS011;47970;52.396;9.586;2023-02-28T03:58:49;10.70;;;4.50;;
62014;SDS011;47970;52.396;9.586;2023-02-28T04:01:23;8.87;;;4.17;;
62014;SDS011;47970;52.396;9.586;2023-02-28T04:03:50;10.98;;;4.60;;
62014;SDS011;47970;52.396;9.586;2023-02-28T04:06:20;9.77;;;4.60;;
62014;SDS011;47970;52.396;9.586;2023-02-28T04:08:46;14.40;;;3.92;;
62014;SDS011;47970;52.396;9.586;2023-02-28T04:13:39;11.00;;;5.35;;
62014;SDS011;47970;52.396;9.586;2023-02-28T04:16:07;11.10;;;4.67;;
62014;SDS011;47970;52.396;9.586;2023-02-28T04:18:39;15.93;;;5.47;;
62014;SDS011;47970;52.396;9.586;2023-02-28T04:21:05;11.93;;;4.65;;
62014;SDS011;47970;52.396;9.586;2023-02-28T04:23:31;11.43;;;4.68;;
62014;SDS011;47970;52.396;9.586;2023-02-28T04:25:56;11.00;;;5.15;;
62014;SDS011;47970;52.396;9.586;2023-02-28T04:28:21;12.88;;;5.78;;
62014;SDS011;47970;52.396;9.586;2023-02-28T04:30:46;12.63;;;5.50;;
62014;SDS011;47970;52.396;9.586;2023-02-28T04:33:12;15.65;;;5.43;;
62014;SDS011;47970;52.396;9.586;2023-02-28T04:35:37;13.70;;;5.53;;
62014;SDS011;47970;52.396;9.586;2023-02-28T04:38:02;9.90;;;4.33;;
62014;SDS011;47970;52.396;9.586;2023-02-28T04:40:27;13.80;;;5.03;;
62014;SDS011;47970;52.396;9.586;2023-02-28T04:42:52;11.20;;;5.10;;
62014;SDS011;47970;52.396;9.586;2023-02-28T04:45:18;10.53;;;4.87;;
62014;SDS011;47970;52.396;9.586;2023-02-28T04:47:43;10.85;;;5.00;;
62014;SDS011;47970;52.396;9.586;2023-02-28T04:50:08;12.73;;;5.53;;
62014;SDS011;47970;52.396;9.586;2023-02-28T04:52:33;15.70;;;5.25;;
62014;SDS011;47970;52.396;9.586;2023-02-28T04:54:59;12.20;;;4.40;;
62014;SDS011;47970;52.396;9.586;2023-02-28T04:57:24;13.45;;;4.78;;
62014;SDS011;47970;52.396;9.586;2023-02-28T04:59:50;14.17;;;4.77;;
62014;SDS011;47970;52.396;9.586;2023-02-28T05:02:15;11.17;;;4.93;;
62014;SDS011;47970;52.396;9.586;2023-02-28T05:04:40;11.70;;;4.77;;
62014;SDS011;47970;52.396;9.586;2023-02-28T05:07:05;13.10;;;5.20;;
62014;SDS011;47970;52.396;9.586;2023-02-28T05:09:30;11.40;;;4.93;;
62014;SDS011;47970;52.396;9.586;2023-02-28T05:11:57;13.75;;;5.38;;
62014;SDS011;47970;52.396;9.586;2023-02-28T05:14:23;13.50;;;5.05;;
62014;SDS011;47970;52.396;9.586;2023-02-28T05:16:48;13.48;;;4.50;;
62014;SDS011;47970;52.396;9.586;2023-02-28T05:19:13;11.70;;;4.50;;
62014;SDS011;47970;52.396;9.586;2023-02-28T05:21:40;10.32;;;4.68;;
62014;SDS011;47970;52.396;9.586;2023-02-28T05:24:11;11.85;;;4.82;;
62014;SDS011;47970;52.396;9.586;2023-02-28T05:26:38;9.68;;;4.55;;
62014;SDS011;47970;52.396;9.586;2023-02-28T05:29:03;11.70;;;5.38;;
62014;SDS011;47970;52.396;9.586;2023-02-28T05:31:29;12.13;;;5.13;;
62014;SDS011;47970;52.396;9.586;2023-02-28T05:33:55;11.03;;;4.47;;
62014;SDS011;47970;52.396;9.586;2023-02-28T05:36:20;11.63;;;5.30;;
62014;SDS011;47970;52.396;9.586;2023-02-28T05:38:46;13.75;;;5.60;;
62014;SDS011;47970;52.396;9.586;2023-02-28T05:41:11;12.50;;;4.63;;
62014;SDS011;47970;52.396;9.586;2023-02-28T05:43:37;9.25;;;4.28;;
62014;SDS011;47970;52.396;9.586;2023-02-28T05:46:05;17.38;;;5.88;;
62014;SDS011;47970;52.396;9.586;2023-02-28T05:48:31;15.60;;;5.78;;
62014;SDS011;47970;52.396;9.586;2023-02-28T05:50:57;12.35;;;4.72;;
62014;SDS011;47970;52.396;9.586;2023-02-28T05:53:22;14.25;;;5.32;;
62014;SDS011;47970;52.396;9.586;2023-02-28T05:55:48;14.43;;;6.38;;
62014;SDS011;47970;52.396;9.586;2023-02-28T05:58:13;12.83;;;5.47;;
62014;SDS011;47970;52.396;9.586;2023-02-28T06:00:38;12.30;;;5.50;;
62014;SDS011;47970;52.396;9.586;2023-02-28T06:03:03;11.73;;;4.90;;
62014;SDS011;47970;52.396;9.586;2023-02-28T06:05:28;11.23;;;4.43;;
62014;SDS011;47970;52.396;9.586;2023-02-28T06:07:53;17.90;;;5.88;;
62014;SDS011;47970;52.396;9.586;2023-02-28T06:10:19;10.70;;;5.10;;
62014;SDS011;47970;52.396;9.586;2023-02-28T06:12:44;13.50;;;5.53;;
62014;SDS011;47970;52.396;9.586;2023-02-28T06:15:11;11.68;;;5.15;;
62014;SDS011;47970;52.396;9.586;2023-02-28T06:17:36;9.25;;;4.68;;
62014;SDS011;47970;52.396;9.586;2023-02-28T06:20:02;9.23;;;3.40;;
62014;SDS011;47970;52.396;9.586;2023-02-28T06:22:27;8.25;;;3.83;;
62014;SDS011;47970;52.396;9.586;2023-02-28T06:24:52;9.47;;;4.57;;
62014;SDS011;47970;52.396;9.586;2023-02-28T06:27:19;7.13;;;3.83;;
62014;SDS011;47970;52.396;9.586;2023-02-28T06:29:45;8.15;;;3.50;;
62014;SDS011;47970;52.396;9.586;2023-02-28T06:32:10;13.20;;;3.50;;
62014;SDS011;47970;52.396;9.586;2023-02-28T06:34:35;6.07;;;3.20;;
62014;SDS011;47970;52.396;9.586;2023-02-28T06:37:01;13.35;;;2.92;;
62014;SDS011;47970;52.396;9.586;2023-02-28T06:39:27;6.03;;;2.88;;
62014;SDS011;47970;52.396;9.586;2023-02-28T06:41:52;6.95;;;2.95;;
62014;SDS011;47970;52.396;9.586;2023-02-28T06:44:18;5.80;;;2.85;;
62014;SDS011;47970;52.396;9.586;2023-02-28T06:46:44;6.83;;;2.97;;
62014;SDS011;47970;52.396;9.586;2023-02-28T06:49:09;7.65;;;3.05;;
62014;SDS011;47970;52.396;9.586;2023-02-28T06:51:35;10.57;;;3.47;;
62014;SDS011;47970;52.396;9.586;2023-02-28T06:54:01;6.68;;;3.22;;
62014;SDS011;47970;52.396;9.586;2023-02-28T06:56:26;7.15;;;3.72;;
62014;SDS011;47970;52.396;9.586;2023-02-28T06:58:51;11.10;;;3.80;;
62014;SDS011;47970;52.396;9.586;2023-02-28T07:01:20;6.57;;;3.20;;
62014;SDS011;47970;52.396;9.586;2023-02-28T07:03:47;9.55;;;3.80;;
62014;SDS011;47970;52.396;9.586;2023-02-28T07:06:17;9.43;;;3.30;;
62014;SDS011;47970;52.396;9.586;2023-02-28T07:08:42;9.07;;;4.00;;
62014;SDS011;47970;52.396;9.586;2023-02-28T07:11:08;10.27;;;4.82;;
62014;SDS011;47970;52.396;9.586;2023-02-28T07:13:33;19.63;;;4.03;;
62014;SDS011;47970;52.396;9.586;2023-02-28T07:15:59;13.17;;;4.03;;
62014;SDS011;47970;52.396;9.586;2023-02-28T07:18:25;7.32;;;3.90;;
62014;SDS011;47970;52.396;9.586;2023-02-28T07:20:50;8.57;;;3.92;;
62014;SDS011;47970;52.396;9.586;2023-02-28T07:23:16;6.57;;;3.33;;
62014;SDS011;47970;52.396;9.586;2023-02-28T07:25:41;7.53;;;3.50;;
62014;SDS011;47970;52.396;9.586;2023-02-28T07:28:06;7.60;;;3.78;;
62014;SDS011;47970;52.396;9.586;2023-02-28T07:30:32;8.00;;;3.72;;
62014;SDS011;47970;52.396;9.586;2023-02-28T07:32:57;11.98;;;4.45;;
62014;SDS011;47970;52.396;9.586;2023-02-28T07:35:22;9.27;;;4.00;;
62014;SDS011;47970;52.396;9.586;2023-02-28T07:37:48;9.88;;;4.63;;
62014;SDS011;47970;52.396;9.586;2023-02-28T07:40:13;9.47;;;4.50;;
62014;SDS011;47970;52.396;9.586;2023-02-28T07:42:39;10.10;;;4.35;;
62014;SDS011;47970;52.396;9.586;2023-02-28T07:45:05;9.57;;;4.45;;
62014;SDS011;47970;52.396;9.586;2023-02-28T07:47:30;16.58;;;5.57;;
62014;SDS011;47970;52.396;9.586;2023-02-28T07:49:56;8.27;;;4.60;;
62014;SDS011;47970;52.396;9.586;2023-02-28T07:52:21;11.20;;;4.20;;
62014;SDS011;47970;52.396;9.586;2023-02-28T07:54:48;11.52;;;4.90;;
62014;SDS011;47970;52.396;9.586;2023-02-28T07:57:13;10.02;;;4.95;;
62014;SDS011;47970;52.396;9.586;2023-02-28T07:59:38;11.13;;;4.97;;
62014;SDS011;47970;52.396;9.586;2023-02-28T08:02:04;8.48;;;4.50;;
62014;SDS011;47970;52.396;9.586;2023-02-28T08:04:31;11.90;;;4.40;;
62014;SDS011;47970;52.396;9.586;2023-02-28T08:06:56;9.00;;;4.03;;
62014;SDS011;47970;52.396;9.586;2023-02-28T08:09:21;8.75;;;4.22;;
62014;SDS011;47970;52.396;9.586;2023-02-28T08:11:47;10.15;;;5.60;;
62014;SDS011;47970;52.396;9.586;2023-02-28T08:14:12;8.93;;;5.03;;
62014;SDS011;47970;52.396;9.586;2023-02-28T08:16:37;9.93;;;4.68;;
62014;SDS011;47970;52.396;9.586;2023-02-28T08:19:03;10.88;;;4.72;;
62014;SDS011;47970;52.396;9.586;2023-02-28T08:21:29;10.63;;;4.93;;
62014;SDS011;47970;52.396;9.586;2023-02-28T08:23:54;12.85;;;5.03;;
62014;SDS011;47970;52.396;9.586;2023-02-28T08:26:19;15.98;;;4.75;;
62014;SDS011;47970;52.396;9.586;2023-02-28T08:28:45;9.30;;;5.13;;
62014;SDS011;47970;52.396;9.586;2023-02-28T08:31:12;13.00;;;5.55;;
62014;SDS011;47970;52.396;9.586;2023-02-28T08:33:38;12.68;;;5.40;;
62014;SDS011;47970;52.396;9.586;2023-02-28T08:36:04;13.70;;;4.82;;
62014;SDS011;47970;52.396;9.586;2023-02-28T08:38:29;16.98;;;5.55;;
62014;SDS011;47970;52.396;9.586;2023-02-28T08:40:58;12.55;;;5.45;;
62014;SDS011;47970;52.396;9.586;2023-02-28T08:43:24;21.08;;;6.50;;
62014;SDS011;47970;52.396;9.586;2023-02-28T08:45:51;18.17;;;5.50;;
62014;SDS011;47970;52.396;9.586;2023-02-28T08:48:16;16.40;;;6.90;;
62014;SDS011;47970;52.396;9.586;2023-02-28T08:50:41;15.87;;;5.67;;
62014;SDS011;47970;52.396;9.586;2023-02-28T08:53:07;11.27;;;5.00;;
62014;SDS011;47970;52.396;9.586;2023-02-28T08:55:32;12.43;;;5.50;;
62014;SDS011;47970;52.396;9.586;2023-02-28T08:57:57;11.35;;;4.60;;
62014;SDS011;47970;52.396;9.586;2023-02-28T09:00:23;14.68;;;5.45;;
62014;SDS011;47970;52.396;9.586;2023-02-28T09:02:48;10.50;;;4.95;;
62014;SDS011;47970;52.396;9.586;2023-02-28T09:05:13;9.90;;;4.90;;
62014;SDS011;47970;52.396;9.586;2023-02-28T09:07:39;9.50;;;3.70;;
62014;SDS011;47970;52.396;9.586;2023-02-28T09:10:04;10.30;;;3.67;;
62014;SDS011;47970;52.396;9.586;2023-02-28T09:12:32;6.68;;;3.33;;
62014;SDS011;47970;52.396;9.586;2023-02-28T09:14:57;9.15;;;3.45;;
62014;SDS011;47970;52.396;9.586;2023-02-28T09:17:22;8.60;;;3.13;;
62014;SDS011;47970;52.396;9.586;2023-02-28T09:19:48;8.00;;;2.65;;
62014;SDS011;47970;52.396;9.586;2023-02-28T09:22:14;4.43;;;2.38;;
62014;SDS011;47970;52.396;9.586;2023-02-28T09:24:39;5.90;;;2.33;;
62014;SDS011;47970;52.396;9.586;2023-02-28T09:27:04;5.80;;;2.23;;
62014;SDS011;47970;52.396;9.586;2023-02-28T09:29:33;5.55;;;2.33;;
62014;SDS011;47970;52.396;9.586;2023-02-28T09:31:58;5.40;;;2.40;;
62014;SDS011;47970;52.396;9.586;2023-02-28T09:34:24;5.97;;;2.30;;
62014;SDS011;47970;52.396;9.586;2023-02-28T09:36:49;5.18;;;2.40;;
62014;SDS011;47970;52.396;9.586;2023-02-28T09:39:19;3.70;;;2.20;;
62014;SDS011;47970;52.396;9.586;2023-02-28T09:41:45;4.78;;;1.95;;
62014;SDS011;47970;52.396;9.586;2023-02-28T09:46:47;5.10;;;2.15;;
62014;SDS011;47970;52.396;9.586;2023-02-28T09:49:17;6.10;;;2.10;;
62014;SDS011;47970;52.396;9.586;2023-02-28T09:51:48;6.10;;;2.40;;
62014;SDS011;47970;52.396;9.586;2023-02-28T09:54:17;5.60;;;2.05;;
62014;SDS011;47970;52.396;9.586;2023-02-28T09:56:44;6.95;;;2.15;;
62014;SDS011;47970;52.396;9.586;2023-02-28T10:04:01;9.17;;;3.37;;
62014;SDS011;47970;52.396;9.586;2023-02-28T10:06:30;5.38;;;2.08;;
62014;SDS011;47970;52.396;9.586;2023-02-28T10:09:00;3.42;;;1.40;;
62014;SDS011;47970;52.396;9.586;2023-02-28T10:11:26;3.38;;;1.73;;
62014;SDS011;47970;52.396;9.586;2023-02-28T10:16:41;4.70;;;1.90;;
62014;SDS011;47970;52.396;9.586;2023-02-28T10:19:06;3.17;;;1.48;;
62014;SDS011;47970;52.396;9.586;2023-02-28T10:21:35;2.25;;;1.20;;
62014;SDS011;47970;52.396;9.586;2023-02-28T10:24:14;8.20;;;1.50;;
62014;SDS011;47970;52.396;9.586;2023-02-28T10:26:43;3.28;;;1.35;;
62014;SDS011;47970;52.396;9.586;2023-02-28T10:29:09;4.93;;;1.27;;
62014;SDS011;47970;52.396;9.586;2023-02-28T10:31:35;3.92;;;1.30;;
62014;SDS011;47970;52.396;9.586;2023-02-28T10:34:00;3.70;;;1.30;;
62014;SDS011;47970;52.396;9.586;2023-02-28T10:36:26;3.17;;;1.10;;
62014;SDS011;47970;52.396;9.586;2023-02-28T10:38:51;3.70;;;1.13;;
62014;SDS011;47970;52.396;9.586;2023-02-28T10:41:37;5.03;;;1.10;;
62014;SDS011;47970;52.396;9.586;2023-02-28T10:44:25;1.92;;;1.23;;
62014;SDS011;47970;52.396;9.586;2023-02-28T10:46:50;3.17;;;1.33;;
62014;SDS011;47970;52.396;9.586;2023-02-28T10:49:22;3.88;;;1.42;;
62014;SDS011;47970;52.396;9.586;2023-02-28T10:51:49;4.68;;;1.60;;
62014;SDS011;47970;52.396;9.586;2023-02-28T10:54:20;3.85;;;1.50;;
62014;SDS011;47970;52.396;9.586;2023-02-28T10:57:05;3.38;;;1.30;;
62014;SDS011;47970;52.396;9.586;2023-02-28T10:59:31;4.85;;;1.70;;
62014;SDS011;47970;52.396;9.586;2023-02-28T11:01:57;3.03;;;1.60;;
62014;SDS011;47970;52.396;9.586;2023-02-28T11:06:47;3.83;;;1.57;;
62014;SDS011;47970;52.396;9.586;2023-02-28T11:09:16;3.55;;;1.60;;
62014;SDS011;47970;52.396;9.586;2023-02-28T11:11:44;4.13;;;2.08;;
62014;SDS011;47970;52.396;9.586;2023-02-28T11:14:20;4.82;;;1.70;;
62014;SDS011;47970;52.396;9.586;2023-02-28T11:16:46;5.40;;;2.00;;
62014;SDS011;47970;52.396;9.586;2023-02-28T11:19:19;3.47;;;1.60;;
62014;SDS011;47970;52.396;9.586;2023-02-28T11:21:51;4.78;;;2.08;;
62014;SDS011;47970;52.396;9.586;2023-02-28T11:24:21;3.60;;;2.03;;
62014;SDS011;47970;52.396;9.586;2023-02-28T11:26:48;3.28;;;1.42;;
62014;SDS011;47970;52.396;9.586;2023-02-28T11:31:41;3.27;;;1.23;;
62014;SDS011;47970;52.396;9.586;2023-02-28T11:34:23;3.97;;;1.40;;
62014;SDS011;47970;52.396;9.586;2023-02-28T11:36:49;2.75;;;1.35;;
62014;SDS011;47970;52.396;9.586;2023-02-28T11:39:14;3.03;;;1.23;;
62014;SDS011;47970;52.396;9.586;2023-02-28T11:46:52;3.50;;;1.60;;
62014;SDS011;47970;52.396;9.586;2023-02-28T11:49:28;10.32;;;3.65;;
62014;SDS011;47970;52.396;9.586;2023-02-28T11:51:59;9.45;;;2.78;;
62014;SDS011;47970;52.396;9.586;2023-02-28T11:56:57;13.10;;;4.93;;
62014;SDS011;47970;52.396;9.586;2023-02-28T12:04:48;6.60;;;2.10;;
62014;SDS011;47970;52.396;9.586;2023-02-28T12:07:19;5.90;;;2.03;;
62014;SDS011;47970;52.396;9.586;2023-02-28T12:14:50;4.75;;;1.70;;
62014;SDS011;47970;52.396;9.586;2023-02-28T12:22:29;4.60;;;1.23;;
62014;SDS011;47970;52.396;9.586;2023-02-28T12:27:40;2.40;;;1.20;;
62014;SDS011;47970;52.396;9.586;2023-02-28T12:32:41;3.25;;;1.08;;
62014;SDS011;47970;52.396;9.586;2023-02-28T12:35:11;3.42;;;1.50;;
62014;SDS011;47970;52.396;9.586;2023-02-28T12:37:39;2.75;;;1.40;;
62014;SDS011;47970;52.396;9.586;2023-02-28T12:40:09;5.57;;;1.95;;
62014;SDS011;47970;52.396;9.586;2023-02-28T12:42:42;3.13;;;1.38;;
62014;SDS011;47970;52.396;9.586;2023-02-28T12:45:13;3.35;;;1.30;;
62014;SDS011;47970;52.396;9.586;2023-02-28T12:47:40;2.10;;;1.00;;
62014;SDS011;47970;52.396;9.586;2023-02-28T12:50:07;3.42;;;1.20;;
62014;SDS011;47970;52.396;9.586;2023-02-28T12:55:25;2.92;;;1.33;;
62014;SDS011;47970;52.396;9.586;2023-02-28T12:57:58;2.67;;;1.23;;
62014;SDS011;47970;52.396;9.586;2023-02-28T13:00:29;4.78;;;2.00;;
62014;SDS011;47970;52.396;9.586;2023-02-28T13:05:38;4.30;;;1.70;;
62014;SDS011;47970;52.396;9.586;2023-02-28T13:10:55;7.17;;;1.43;;
62014;SDS011;47970;52.396;9.586;2023-02-28T13:13:22;2.40;;;1.30;;
62014;SDS011;47970;52.396;9.586;2023-02-28T13:16:03;2.65;;;1.30;;
62014;SDS011;47970;52.396;9.586;2023-02-28T13:21:05;3.85;;;1.40;;
62014;SDS011;47970;52.396;9.586;2023-02-28T13:26:19;3.30;;;1.63;;
62014;SDS011;47970;52.396;9.586;2023-02-28T13:31:15;3.90;;;1.60;;
62014;SDS011;47970;52.396;9.586;2023-02-28T13:34:05;3.90;;;1.63;;
62014;SDS011;47970;52.396;9.586;2023-02-28T13:36:30;3.72;;;1.55;;
62014;SDS011;47970;52.396;9.586;2023-02-28T13:39:11;3.95;;;1.40;;
62014;SDS011;47970;52.396;9.586;2023-02-28T13:41:45;2.40;;;1.50;;
62014;SDS011;47970;52.396;9.586;2023-02-28T13:44:18;4.55;;;1.92;;
62014;SDS011;47970;52.396;9.586;2023-02-28T13:49:45;7.35;;;2.28;;
62014;SDS011;47970;52.396;9.586;2023-02-28T13:59:28;6.80;;;1.63;;
62014;SDS011;47970;52.396;9.586;2023-02-28T14:02:25;4.07;;;2.00;;
62014;SDS011;47970;52.396;9.586;2023-02-28T14:07:21;8.63;;;2.70;;
62014;SDS011;47970;52.396;9.586;2023-02-28T14:09:51;5.55;;;1.85;;
62014;SDS011;47970;52.396;9.586;2023-02-28T14:15:04;4.07;;;1.65;;
62014;SDS011;47970;52.396;9.586;2023-02-28T14:17:51;4.25;;;1.90;;
62014;SDS011;47970;52.396;9.586;2023-02-28T14:20:16;5.30;;;1.63;;
62014;SDS011;47970;52.396;9.586;2023-02-28T14:22:49;2.97;;;1.33;;
62014;SDS011;47970;52.396;9.586;2023-02-28T14:25:21;7.57;;;2.03;;
62014;SDS011;47970;52.396;9.586;2023-02-28T14:38:53;6.43;;;2.13;;
62014;SDS011;47970;52.396;9.586;2023-02-28T14:41:15;3.50;;;1.50;;
62014;SDS011;47970;52.396;9.586;2023-02-28T14:43:48;5.68;;;1.63;;
62014;SDS011;47970;52.396;9.586;2023-02-28T14:46:14;2.88;;;1.65;;
62014;SDS011;47970;52.396;9.586;2023-02-28T14:48:39;5.45;;;1.55;;
62014;SDS011;47970;52.396;9.586;2023-02-28T14:51:04;3.92;;;1.73;;
62014;SDS011;47970;52.396;9.586;2023-02-28T14:53:30;5.07;;;2.03;;
62014;SDS011;47970;52.396;9.586;2023-02-28T14:58:29;2.92;;;1.58;;
62014;SDS011;47970;52.396;9.586;2023-02-28T15:00:55;3.88;;;1.80;;
62014;SDS011;47970;52.396;9.586;2023-02-28T15:03:34;4.90;;;1.95;;
62014;SDS011;47970;52.396;9.586;2023-02-28T15:08:25;3.27;;;1.87;;
62014;SDS011;47970;52.396;9.586;2023-02-28T15:10:55;4.57;;;1.90;;
62014;SDS011;47970;52.396;9.586;2023-02-28T15:13:21;6.35;;;1.75;;
62014;SDS011;47970;52.396;9.586;2023-02-28T15:18:14;5.00;;;1.80;;
62014;SDS011;47970;52.396;9.586;2023-02-28T15:20:40;5.05;;;1.60;;
62014;SDS011;47970;52.396;9.586;2023-02-28T15:23:07;2.67;;;1.40;;
62014;SDS011;47970;52.396;9.586;2023-02-28T15:25:32;5.93;;;1.67;;
62014;SDS011;47970;52.396;9.586;2023-02-28T15:27:58;5.10;;;2.22;;
62014;SDS011;47970;52.396;9.586;2023-02-28T15:30:25;4.70;;;1.75;;
62014;SDS011;47970;52.396;9.586;2023-02-28T15:35:36;3.53;;;1.90;;
62014;SDS011;47970;52.396;9.586;2023-02-28T15:40:29;4.28;;;1.65;;
62014;SDS011;47970;52.396;9.586;2023-02-28T15:42:58;4.15;;;1.95;;
62014;SDS011;47970;52.396;9.586;2023-02-28T15:45:27;5.32;;;1.80;;
62014;SDS011;47970;52.396;9.586;2023-02-28T15:47:53;3.92;;;1.65;;
62014;SDS011;47970;52.396;9.586;2023-02-28T15:50:18;7.60;;;2.10;;
62014;SDS011;47970;52.396;9.586;2023-02-28T15:52:44;2.85;;;1.48;;
62014;SDS011;47970;52.396;9.586;2023-02-28T15:55:10;6.47;;;1.92;;
62014;SDS011;47970;52.396;9.586;2023-02-28T15:57:38;3.58;;;1.80;;
62014;SDS011;47970;52.396;9.586;2023-02-28T16:00:04;9.85;;;2.65;;
62014;SDS011;47970;52.396;9.586;2023-02-28T16:02:34;4.05;;;2.00;;
62014;SDS011;47970;52.396;9.586;2023-02-28T16:07:36;4.38;;;2.40;;
62014;SDS011;47970;52.396;9.586;2023-02-28T16:10:01;4.90;;;1.98;;
62014;SDS011;47970;52.396;9.586;2023-02-28T16:12:28;4.07;;;1.75;;
62014;SDS011;47970;52.396;9.586;2023-02-28T16:14:54;4.75;;;1.90;;
62014;SDS011;47970;52.396;9.586;2023-02-28T16:17:22;4.97;;;1.88;;
62014;SDS011;47970;52.396;9.586;2023-02-28T16:19:47;7.32;;;2.70;;
62014;SDS011;47970;52.396;9.586;2023-02-28T16:22:12;6.18;;;1.80;;
62014;SDS011;47970;52.396;9.586;2023-02-28T16:24:38;4.97;;;1.87;;
62014;SDS011;47970;52.396;9.586;2023-02-28T16:27:04;6.32;;;2.70;;
62014;SDS011;47970;52.396;9.586;2023-02-28T16:29:31;6.32;;;2.10;;
62014;SDS011;47970;52.396;9.586;2023-02-28T16:31:56;5.65;;;2.25;;
62014;SDS011;47970;52.396;9.586;2023-02-28T16:34:22;6.05;;;1.88;;
62014;SDS011;47970;52.396;9.586;2023-02-28T16:36:48;7.85;;;2.03;;
62014;SDS011;47970;52.396;9.586;2023-02-28T16:39:13;3.65;;;1.85;;
62014;SDS011;47970;52.396;9.586;2023-02-28T16:41:38;6.55;;;2.42;;
62014;SDS011;47970;52.396;9.586;2023-02-28T16:44:07;7.25;;;2.20;;
62014;SDS011;47970;52.396;9.586;2023-02-28T16:46:34;6.13;;;2.60;;
62014;SDS011;47970;52.396;9.586;2023-02-28T16:49:00;4.75;;;2.20;;
62014;SDS011;47970;52.396;9.586;2023-02-28T16:51:25;8.13;;;2.60;;
62014;SDS011;47970;52.396;9.586;2023-02-28T16:53:51;5.28;;;2.45;;